sensor_id;sensor_type;location;lat;lon;timestamp;P1;durP1;ratioP1;P2;durP2;ratioP2
20593;SDS011;10455;48.732;10.266;2023-02-20T00:03:01;16.30;;;5.67;;
20593;SDS011;10455;48.732;10.266;2023-02-20T00:08:04;7.77;;;5.07;;
20593;SDS011;10455;48.732;10.266;2023-02-20T00:13:07;6.60;;;4.80;;
20593;SDS011;10455;48.732;10.266;2023-02-20T00:18:09;7.37;;;4.50;;
20593;SDS011;10455;48.732;10.266;2023-02-20T00:23:11;11.73;;;4.37;;
20593;SDS011;10455;48.732;10.266;2023-02-20T00:28:14;8.93;;;5.47;;
20593;SDS011;10455;48.732;10.266;2023-02-20T00:33:16;9.13;;;4.57;;
20593;SDS011;10455;48.732;10.266;2023-02-20T00:38:18;8.70;;;4.87;;
20593;SDS011;10455;48.732;10.266;2023-02-20T00:43:21;7.07;;;4.83;;
20593;SDS011;10455;48.732;10.266;2023-02-20T00:48:23;6.23;;;4.50;;
20593;SDS011;10455;48.732;10.266;2023-02-20T00:53:25;6.77;;;5.87;;
20593;SDS011;10455;48.732;10.266;2023-02-20T00:58:28;10.57;;;6.23;;
20593;SDS011;10455;48.732;10.266;2023-02-20T01:03:30;12.00;;;7.07;;
20593;SDS011;10455;48.732;10.266;2023-02-20T01:08:32;10.40;;;6.77;;
20593;SDS011;10455;48.732;10.266;2023-02-20T01:13:35;8.77;;;6.53;;
20593;SDS011;10455;48.732;10.266;2023-02-20T01:18:37;10.90;;;6.80;;
20593;SDS011;10455;48.732;10.266;2023-02-20T01:23:39;12.97;;;6.57;;
20593;SDS011;10455;48.732;10.266;2023-02-20T01:28:43;9.30;;;6.13;;
20593;SDS011;10455;48.732;10.266;2023-02-20T01:33:46;12.53;;;7.17;;
20593;SDS011;10455;48.732;10.266;2023-02-20T01:38:48;7.13;;;6.43;;
20593;SDS011;10455;48.732;10.266;2023-02-20T01:43:51;11.53;;;7.00;;
20593;SDS011;10455;48.732;10.266;2023-02-20T01:48:53;10.33;;;6.87;;
20593;SDS011;10455;48.732;10.266;2023-02-20T01:54:00;13.43;;;7.90;;
20593;SDS011;10455;48.732;10.266;2023-02-20T01:59:04;12.30;;;7.70;;
20593;SDS011;10455;48.732;10.266;2023-02-20T02:04:08;11.50;;;8.53;;
20593;SDS011;10455;48.732;10.266;2023-02-20T02:09:17;8.20;;;5.70;;
20593;SDS011;10455;48.732;10.266;2023-02-20T02:14:25;9.47;;;6.47;;
20593;SDS011;10455;48.732;10.266;2023-02-20T02:19:34;10.67;;;6.20;;
20593;SDS011;10455;48.732;10.266;2023-02-20T02:41:53;9.43;;;5.80;;
20593;SDS011;10455;48.732;10.266;2023-02-20T02:46:58;8.20;;;5.47;;
20593;SDS011;10455;48.732;10.266;2023-02-20T02:52:03;7.53;;;5.83;;
20593;SDS011;10455;48.732;10.266;2023-02-20T02:57:22;8.23;;;5.67;;
20593;SDS011;10455;48.732;10.266;2023-02-20T03:02:26;7.97;;;5.13;;
20593;SDS011;10455;48.732;10.266;2023-02-20T03:07:32;10.47;;;6.20;;
20593;SDS011;10455;48.732;10.266;2023-02-20T03:12:39;8.03;;;5.80;;
20593;SDS011;10455;48.732;10.266;2023-02-20T03:17:48;10.87;;;5.97;;
20593;SDS011;10455;48.732;10.266;2023-02-20T03:22:56;9.63;;;6.57;;
20593;SDS011;10455;48.732;10.266;2023-02-20T03:28:02;7.67;;;5.93;;
20593;SDS011;10455;48.732;10.266;2023-02-20T03:33:10;18.43;;;6.23;;
20593;SDS011;10455;48.732;10.266;2023-02-20T03:38:33;9.80;;;7.47;;
20593;SDS011;10455;48.732;10.266;2023-02-20T03:43:58;9.23;;;6.77;;
20593;SDS011;10455;48.732;10.266;2023-02-20T03:49:06;11.60;;;6.97;;
20593;SDS011;10455;48.732;10.266;2023-02-20T03:54:11;9.83;;;6.80;;
20593;SDS011;10455;48.732;10.266;2023-02-20T03:59:16;10.93;;;6.20;;
20593;SDS011;10455;48.732;10.266;2023-02-20T04:04:24;11.63;;;6.27;;
20593;SDS011;10455;48.732;10.266;2023-02-20T04:09:31;11.67;;;6.63;;
20593;SDS011;10455;48.732;10.266;2023-02-20T04:14:36;11.70;;;6.60;;
20593;SDS011;10455;48.732;10.266;2023-02-20T04:19:39;9.73;;;6.87;;
20593;SDS011;10455;48.732;10.266;2023-02-20T04:24:41;10.63;;;7.10;;
20593;SDS011;10455;48.732;10.266;2023-02-20T04:29:49;17.10;;;7.17;;
20593;SDS011;10455;48.732;10.266;2023-02-20T04:34:51;13.30;;;7.63;;
20593;SDS011;10455;48.732;10.266;2023-02-20T04:39:53;9.47;;;6.37;;
20593;SDS011;10455;48.732;10.266;2023-02-20T04:44:56;10.20;;;6.50;;
20593;SDS011;10455;48.732;10.266;2023-02-20T04:49:58;12.97;;;7.10;;
20593;SDS011;10455;48.732;10.266;2023-02-20T04:55:00;11.77;;;7.00;;
20593;SDS011;10455;48.732;10.266;2023-02-20T05:00:04;11.10;;;6.87;;
20593;SDS011;10455;48.732;10.266;2023-02-20T05:05:14;9.60;;;6.60;;
20593;SDS011;10455;48.732;10.266;2023-02-20T05:10:18;11.87;;;7.43;;
20593;SDS011;10455;48.732;10.266;2023-02-20T05:15:23;11.77;;;7.33;;
20593;SDS011;10455;48.732;10.266;2023-02-20T05:20:26;11.73;;;6.77;;
20593;SDS011;10455;48.732;10.266;2023-02-20T05:25:43;10.47;;;6.73;;
20593;SDS011;10455;48.732;10.266;2023-02-20T05:30:46;11.87;;;7.00;;
20593;SDS011;10455;48.732;10.266;2023-02-20T05:35:48;12.37;;;7.03;;
20593;SDS011;10455;48.732;10.266;2023-02-20T05:40:49;11.13;;;6.67;;
20593;SDS011;10455;48.732;10.266;2023-02-20T05:45:53;12.10;;;7.70;;
20593;SDS011;10455;48.732;10.266;2023-02-20T05:50:55;10.27;;;7.17;;
20593;SDS011;10455;48.732;10.266;2023-02-20T05:55:56;9.53;;;7.00;;
20593;SDS011;10455;48.732;10.266;2023-02-20T06:01:00;10.13;;;6.57;;
20593;SDS011;10455;48.732;10.266;2023-02-20T06:06:02;13.23;;;6.80;;
20593;SDS011;10455;48.732;10.266;2023-02-20T06:11:04;10.20;;;6.50;;
20593;SDS011;10455;48.732;10.266;2023-02-20T06:16:08;11.23;;;7.10;;
20593;SDS011;10455;48.732;10.266;2023-02-20T06:21:12;10.63;;;6.67;;
20593;SDS011;10455;48.732;10.266;2023-02-20T06:26:14;11.17;;;7.17;;
20593;SDS011;10455;48.732;10.266;2023-02-20T06:31:20;10.63;;;7.13;;
20593;SDS011;10455;48.732;10.266;2023-02-20T06:36:25;10.20;;;6.93;;
20593;SDS011;10455;48.732;10.266;2023-02-20T06:41:29;11.37;;;7.23;;
20593;SDS011;10455;48.732;10.266;2023-02-20T06:46:32;8.80;;;5.90;;
20593;SDS011;10455;48.732;10.266;2023-02-20T06:51:34;12.60;;;6.27;;
20593;SDS011;10455;48.732;10.266;2023-02-20T06:56:36;11.37;;;6.70;;
20593;SDS011;10455;48.732;10.266;2023-02-20T07:01:40;10.80;;;6.53;;
20593;SDS011;10455;48.732;10.266;2023-02-20T07:06:43;11.70;;;6.60;;
20593;SDS011;10455;48.732;10.266;2023-02-20T07:11:46;9.40;;;5.60;;
20593;SDS011;10455;48.732;10.266;2023-02-20T07:16:50;8.83;;;6.07;;
20593;SDS011;10455;48.732;10.266;2023-02-20T07:21:52;13.67;;;5.90;;
20593;SDS011;10455;48.732;10.266;2023-02-20T07:26:54;7.87;;;5.77;;
20593;SDS011;10455;48.732;10.266;2023-02-20T07:31:57;9.13;;;6.43;;
20593;SDS011;10455;48.732;10.266;2023-02-20T07:36:59;9.70;;;5.70;;
20593;SDS011;10455;48.732;10.266;2023-02-20T07:42:01;9.13;;;5.30;;
20593;SDS011;10455;48.732;10.266;2023-02-20T07:47:05;8.93;;;5.60;;
20593;SDS011;10455;48.732;10.266;2023-02-20T07:52:07;9.77;;;5.27;;
20593;SDS011;10455;48.732;10.266;2023-02-20T07:57:08;6.60;;;4.97;;
20593;SDS011;10455;48.732;10.266;2023-02-20T08:02:12;8.73;;;4.93;;
20593;SDS011;10455;48.732;10.266;2023-02-20T08:07:14;6.97;;;4.83;;
20593;SDS011;10455;48.732;10.266;2023-02-20T08:12:16;7.43;;;4.83;;
20593;SDS011;10455;48.732;10.266;2023-02-20T08:17:19;8.10;;;5.37;;
20593;SDS011;10455;48.732;10.266;2023-02-20T08:22:21;8.73;;;4.83;;
20593;SDS011;10455;48.732;10.266;2023-02-20T08:27:22;8.90;;;4.27;;
20593;SDS011;10455;48.732;10.266;2023-02-20T08:32:26;7.47;;;4.50;;
20593;SDS011;10455;48.732;10.266;2023-02-20T08:37:28;6.83;;;3.70;;
20593;SDS011;10455;48.732;10.266;2023-02-20T08:42:30;6.60;;;4.23;;
20593;SDS011;10455;48.732;10.266;2023-02-20T08:47:34;5.93;;;4.20;;
20593;SDS011;10455;48.732;10.266;2023-02-20T08:52:36;5.90;;;3.80;;
20593;SDS011;10455;48.732;10.266;2023-02-20T08:57:37;7.60;;;4.00;;
20593;SDS011;10455;48.732;10.266;2023-02-20T09:02:44;4.30;;;3.60;;
20593;SDS011;10455;48.732;10.266;2023-02-20T09:07:47;4.83;;;3.33;;
20593;SDS011;10455;48.732;10.266;2023-02-20T09:12:49;5.37;;;3.47;;
20593;SDS011;10455;48.732;10.266;2023-02-20T09:17:52;5.57;;;3.00;;
20593;SDS011;10455;48.732;10.266;2023-02-20T09:22:56;4.40;;;2.70;;
20593;SDS011;10455;48.732;10.266;2023-02-20T09:27:59;4.38;;;2.70;;
20593;SDS011;10455;48.732;10.266;2023-02-20T09:33:02;4.15;;;2.33;;
20593;SDS011;10455;48.732;10.266;2023-02-20T09:38:04;4.50;;;2.30;;
20593;SDS011;10455;48.732;10.266;2023-02-20T09:43:14;4.15;;;2.53;;
20593;SDS011;10455;48.732;10.266;2023-02-20T09:48:34;6.68;;;2.88;;
20593;SDS011;10455;48.732;10.266;2023-02-20T09:53:49;5.13;;;2.90;;
20593;SDS011;10455;48.732;10.266;2023-02-20T09:58:57;5.07;;;2.47;;
20593;SDS011;10455;48.732;10.266;2023-02-20T10:04:05;4.45;;;2.55;;
20593;SDS011;10455;48.732;10.266;2023-02-20T10:09:12;4.15;;;2.22;;
20593;SDS011;10455;48.732;10.266;2023-02-20T10:19:40;5.35;;;2.50;;
20593;SDS011;10455;48.732;10.266;2023-02-20T10:24:57;4.43;;;2.00;;
20593;SDS011;10455;48.732;10.266;2023-02-20T10:30:08;5.70;;;2.55;;
20593;SDS011;10455;48.732;10.266;2023-02-20T10:35:14;7.82;;;2.63;;
20593;SDS011;10455;48.732;10.266;2023-02-20T10:40:21;4.45;;;2.20;;
20593;SDS011;10455;48.732;10.266;2023-02-20T10:45:31;2.63;;;2.10;;
20593;SDS011;10455;48.732;10.266;2023-02-20T10:50:44;5.55;;;2.78;;
20593;SDS011;10455;48.732;10.266;2023-02-20T10:55:51;2.45;;;2.15;;
20593;SDS011;10455;48.732;10.266;2023-02-20T11:00:59;3.25;;;2.38;;
20593;SDS011;10455;48.732;10.266;2023-02-20T11:06:05;3.75;;;2.40;;
20593;SDS011;10455;48.732;10.266;2023-02-20T11:11:18;4.13;;;2.40;;
20593;SDS011;10455;48.732;10.266;2023-02-20T11:16:23;4.28;;;2.33;;
20593;SDS011;10455;48.732;10.266;2023-02-20T11:21:38;3.53;;;1.90;;
20593;SDS011;10455;48.732;10.266;2023-02-20T11:26:41;3.67;;;2.45;;
20593;SDS011;10455;48.732;10.266;2023-02-20T11:31:43;2.45;;;1.80;;
20593;SDS011;10455;48.732;10.266;2023-02-20T11:36:50;4.25;;;2.00;;
20593;SDS011;10455;48.732;10.266;2023-02-20T11:42:03;5.03;;;3.67;;
20593;SDS011;10455;48.732;10.266;2023-02-20T11:47:24;4.65;;;1.90;;
20593;SDS011;10455;48.732;10.266;2023-02-20T11:52:28;6.75;;;2.58;;
20593;SDS011;10455;48.732;10.266;2023-02-20T11:57:30;3.17;;;2.83;;
20593;SDS011;10455;48.732;10.266;2023-02-20T12:02:34;1.92;;;1.67;;
20593;SDS011;10455;48.732;10.266;2023-02-20T12:07:38;3.47;;;1.85;;
20593;SDS011;10455;48.732;10.266;2023-02-20T12:12:42;2.20;;;1.70;;
20593;SDS011;10455;48.732;10.266;2023-02-20T12:17:48;4.32;;;1.92;;
20593;SDS011;10455;48.732;10.266;2023-02-20T12:23:11;3.60;;;2.80;;
20593;SDS011;10455;48.732;10.266;2023-02-20T12:28:21;3.63;;;1.83;;
20593;SDS011;10455;48.732;10.266;2023-02-20T12:33:45;2.58;;;1.95;;
20593;SDS011;10455;48.732;10.266;2023-02-20T12:39:00;4.93;;;1.90;;
20593;SDS011;10455;48.732;10.266;2023-02-20T12:44:11;3.58;;;2.05;;
20593;SDS011;10455;48.732;10.266;2023-02-20T12:49:30;2.22;;;1.90;;
20593;SDS011;10455;48.732;10.266;2023-02-20T12:54:50;2.92;;;2.28;;
20593;SDS011;10455;48.732;10.266;2023-02-20T13:00:00;2.22;;;1.65;;
20593;SDS011;10455;48.732;10.266;2023-02-20T13:05:07;3.92;;;1.80;;
20593;SDS011;10455;48.732;10.266;2023-02-20T13:10:15;2.38;;;1.70;;
20593;SDS011;10455;48.732;10.266;2023-02-20T13:15:24;1.83;;;1.60;;
20593;SDS011;10455;48.732;10.266;2023-02-20T13:20:35;4.90;;;3.55;;
20593;SDS011;10455;48.732;10.266;2023-02-20T13:25:46;3.05;;;1.60;;
20593;SDS011;10455;48.732;10.266;2023-02-20T13:36:18;2.00;;;1.70;;
20593;SDS011;10455;48.732;10.266;2023-02-20T13:52:47;3.17;;;1.88;;
20593;SDS011;10455;48.732;10.266;2023-02-20T13:57:55;2.85;;;1.50;;
20593;SDS011;10455;48.732;10.266;2023-02-20T14:03:10;2.10;;;1.42;;
20593;SDS011;10455;48.732;10.266;2023-02-20T14:08:15;2.10;;;1.83;;
20593;SDS011;10455;48.732;10.266;2023-02-20T14:13:19;2.88;;;1.70;;
20593;SDS011;10455;48.732;10.266;2023-02-20T14:18:24;2.45;;;1.77;;
20593;SDS011;10455;48.732;10.266;2023-02-20T14:23:28;2.50;;;1.83;;
20593;SDS011;10455;48.732;10.266;2023-02-20T14:28:31;2.63;;;1.67;;
20593;SDS011;10455;48.732;10.266;2023-02-20T14:33:37;2.33;;;1.63;;
20593;SDS011;10455;48.732;10.266;2023-02-20T14:38:42;3.42;;;2.00;;
20593;SDS011;10455;48.732;10.266;2023-02-20T14:43:52;3.15;;;1.95;;
20593;SDS011;10455;48.732;10.266;2023-02-20T14:49:04;3.55;;;2.10;;
20593;SDS011;10455;48.732;10.266;2023-02-20T14:54:16;3.63;;;2.10;;
20593;SDS011;10455;48.732;10.266;2023-02-20T14:59:23;2.92;;;2.28;;
20593;SDS011;10455;48.732;10.266;2023-02-20T15:04:27;4.00;;;1.90;;
20593;SDS011;10455;48.732;10.266;2023-02-20T15:09:36;1.77;;;1.67;;
20593;SDS011;10455;48.732;10.266;2023-02-20T15:14:41;2.45;;;1.90;;
20593;SDS011;10455;48.732;10.266;2023-02-20T15:19:45;4.68;;;1.92;;
20593;SDS011;10455;48.732;10.266;2023-02-20T15:24:47;4.05;;;1.77;;
20593;SDS011;10455;48.732;10.266;2023-02-20T15:35:15;2.35;;;1.90;;
20593;SDS011;10455;48.732;10.266;2023-02-20T15:40:21;5.57;;;1.90;;
20593;SDS011;10455;48.732;10.266;2023-02-20T15:45:26;2.90;;;1.80;;
20593;SDS011;10455;48.732;10.266;2023-02-20T15:50:30;2.97;;;2.25;;
20593;SDS011;10455;48.732;10.266;2023-02-20T15:55:32;3.65;;;2.20;;
20593;SDS011;10455;48.732;10.266;2023-02-20T16:00:35;3.55;;;2.20;;
20593;SDS011;10455;48.732;10.266;2023-02-20T16:05:38;3.00;;;2.20;;
20593;SDS011;10455;48.732;10.266;2023-02-20T16:10:40;4.78;;;1.98;;
20593;SDS011;10455;48.732;10.266;2023-02-20T16:15:42;3.30;;;2.10;;
20593;SDS011;10455;48.732;10.266;2023-02-20T16:20:45;5.33;;;2.00;;
20593;SDS011;10455;48.732;10.266;2023-02-20T16:25:48;3.10;;;1.90;;
20593;SDS011;10455;48.732;10.266;2023-02-20T16:30:50;4.60;;;2.10;;
20593;SDS011;10455;48.732;10.266;2023-02-20T16:35:55;3.67;;;2.50;;
20593;SDS011;10455;48.732;10.266;2023-02-20T16:40:57;3.73;;;2.30;;
20593;SDS011;10455;48.732;10.266;2023-02-20T16:46:02;3.50;;;2.03;;
20593;SDS011;10455;48.732;10.266;2023-02-20T16:51:05;5.53;;;2.37;;
20593;SDS011;10455;48.732;10.266;2023-02-20T16:56:13;3.80;;;2.20;;
20593;SDS011;10455;48.732;10.266;2023-02-20T17:01:15;3.90;;;2.17;;
20593;SDS011;10455;48.732;10.266;2023-02-20T17:06:18;4.43;;;2.23;;
20593;SDS011;10455;48.732;10.266;2023-02-20T17:11:22;3.53;;;2.30;;
20593;SDS011;10455;48.732;10.266;2023-02-20T17:16:24;5.10;;;2.67;;
20593;SDS011;10455;48.732;10.266;2023-02-20T17:21:27;3.37;;;3.07;;
20593;SDS011;10455;48.732;10.266;2023-02-20T17:26:29;3.60;;;2.50;;
20593;SDS011;10455;48.732;10.266;2023-02-20T17:31:35;3.17;;;2.10;;
20593;SDS011;10455;48.732;10.266;2023-02-20T17:36:40;3.40;;;2.63;;
20593;SDS011;10455;48.732;10.266;2023-02-20T17:41:47;3.40;;;2.10;;
20593;SDS011;10455;48.732;10.266;2023-02-20T17:46:50;5.40;;;2.90;;
20593;SDS011;10455;48.732;10.266;2023-02-20T17:51:54;4.50;;;2.37;;
20593;SDS011;10455;48.732;10.266;2023-02-20T17:56:59;17.30;;;14.70;;
20593;SDS011;10455;48.732;10.266;2023-02-20T18:02:01;9.27;;;6.50;;
20593;SDS011;10455;48.732;10.266;2023-02-20T18:07:05;7.40;;;3.00;;
20593;SDS011;10455;48.732;10.266;2023-02-20T18:12:08;4.23;;;2.67;;
20593;SDS011;10455;48.732;10.266;2023-02-20T18:17:10;4.17;;;3.00;;
20593;SDS011;10455;48.732;10.266;2023-02-20T18:22:13;5.77;;;2.70;;
20593;SDS011;10455;48.732;10.266;2023-02-20T18:27:15;3.37;;;2.93;;
20593;SDS011;10455;48.732;10.266;2023-02-20T18:32:17;3.57;;;2.67;;
20593;SDS011;10455;48.732;10.266;2023-02-20T18:37:20;4.40;;;2.90;;
20593;SDS011;10455;48.732;10.266;2023-02-20T18:42:22;3.33;;;2.67;;
20593;SDS011;10455;48.732;10.266;2023-02-20T18:47:24;6.03;;;2.60;;
20593;SDS011;10455;48.732;10.266;2023-02-20T18:52:30;4.03;;;2.60;;
20593;SDS011;10455;48.732;10.266;2023-02-20T18:57:32;3.03;;;2.50;;
20593;SDS011;10455;48.732;10.266;2023-02-20T19:02:34;6.67;;;2.47;;
20593;SDS011;10455;48.732;10.266;2023-02-20T19:07:40;3.23;;;2.93;;
20593;SDS011;10455;48.732;10.266;2023-02-20T19:12:42;5.40;;;3.47;;
20593;SDS011;10455;48.732;10.266;2023-02-20T19:17:45;3.40;;;3.10;;
20593;SDS011;10455;48.732;10.266;2023-02-20T19:22:49;3.60;;;3.07;;
20593;SDS011;10455;48.732;10.266;2023-02-20T19:27:51;4.00;;;3.10;;
20593;SDS011;10455;48.732;10.266;2023-02-20T19:32:53;3.27;;;2.60;;
20593;SDS011;10455;48.732;10.266;2023-02-20T19:37:56;6.63;;;2.63;;
20593;SDS011;10455;48.732;10.266;2023-02-20T19:42:58;9.10;;;2.80;;
20593;SDS011;10455;48.732;10.266;2023-02-20T19:48:00;5.17;;;2.70;;
20593;SDS011;10455;48.732;10.266;2023-02-20T19:53:03;5.10;;;2.70;;
20593;SDS011;10455;48.732;10.266;2023-02-20T19:58:06;3.77;;;2.90;;
20593;SDS011;10455;48.732;10.266;2023-02-20T20:03:09;3.43;;;2.57;;
20593;SDS011;10455;48.732;10.266;2023-02-20T20:08:12;5.30;;;2.73;;
20593;SDS011;10455;48.732;10.266;2023-02-20T20:13:14;3.40;;;2.53;;
20593;SDS011;10455;48.732;10.266;2023-02-20T20:18:17;3.97;;;2.70;;
20593;SDS011;10455;48.732;10.266;2023-02-20T20:23:20;3.83;;;2.50;;
20593;SDS011;10455;48.732;10.266;2023-02-20T20:28:22;3.23;;;2.50;;
20593;SDS011;10455;48.732;10.266;2023-02-20T20:33:24;3.87;;;2.50;;
20593;SDS011;10455;48.732;10.266;2023-02-20T20:38:27;4.10;;;2.40;;
20593;SDS011;10455;48.732;10.266;2023-02-20T20:43:29;2.87;;;2.57;;
20593;SDS011;10455;48.732;10.266;2023-02-20T20:48:32;3.87;;;2.50;;
20593;SDS011;10455;48.732;10.266;2023-02-20T20:53:35;3.10;;;2.70;;
20593;SDS011;10455;48.732;10.266;2023-02-20T20:58:37;3.03;;;2.40;;
20593;SDS011;10455;48.732;10.266;2023-02-20T21:03:39;2.80;;;2.60;;
20593;SDS011;10455;48.732;10.266;2023-02-20T21:08:42;3.33;;;2.40;;
20593;SDS011;10455;48.732;10.266;2023-02-20T21:13:44;3.40;;;2.60;;
20593;SDS011;10455;48.732;10.266;2023-02-20T21:18:47;4.00;;;2.23;;
20593;SDS011;10455;48.732;10.266;2023-02-20T21:23:50;2.60;;;2.10;;
20593;SDS011;10455;48.732;10.266;2023-02-20T21:28:52;3.17;;;2.40;;
20593;SDS011;10455;48.732;10.266;2023-02-20T21:33:54;5.63;;;4.63;;
20593;SDS011;10455;48.732;10.266;2023-02-20T21:38:58;4.27;;;2.50;;
20593;SDS011;10455;48.732;10.266;2023-02-20T21:43:59;4.63;;;2.33;;
20593;SDS011;10455;48.732;10.266;2023-02-20T21:49:19;3.67;;;2.60;;
20593;SDS011;10455;48.732;10.266;2023-02-20T21:54:23;5.70;;;2.97;;
20593;SDS011;10455;48.732;10.266;2023-02-20T21:59:27;3.53;;;2.67;;
20593;SDS011;10455;48.732;10.266;2023-02-20T22:04:28;3.83;;;2.70;;
20593;SDS011;10455;48.732;10.266;2023-02-20T22:09:30;2.83;;;2.40;;
20593;SDS011;10455;48.732;10.266;2023-02-20T22:14:50;3.23;;;2.60;;
20593;SDS011;10455;48.732;10.266;2023-02-20T22:20:10;3.37;;;2.57;;
20593;SDS011;10455;48.732;10.266;2023-02-20T22:25:31;5.73;;;2.80;;
20593;SDS011;10455;48.732;10.266;2023-02-20T22:30:50;2.90;;;2.60;;
20593;SDS011;10455;48.732;10.266;2023-02-20T22:36:09;4.17;;;2.80;;
20593;SDS011;10455;48.732;10.266;2023-02-20T22:41:30;3.50;;;2.40;;
20593;SDS011;10455;48.732;10.266;2023-02-20T22:46:49;2.93;;;2.50;;
20593;SDS011;10455;48.732;10.266;2023-02-20T22:52:08;2.60;;;2.40;;
20593;SDS011;10455;48.732;10.266;2023-02-20T22:57:29;5.67;;;3.00;;
20593;SDS011;10455;48.732;10.266;2023-02-20T23:02:49;4.37;;;2.60;;
20593;SDS011;10455;48.732;10.266;2023-02-20T23:08:08;2.90;;;2.70;;
20593;SDS011;10455;48.732;10.266;2023-02-20T23:13:30;3.80;;;2.43;;
20593;SDS011;10455;48.732;10.266;2023-02-20T23:18:49;5.43;;;2.70;;
20593;SDS011;10455;48.732;10.266;2023-02-20T23:24:09;2.90;;;2.50;;
20593;SDS011;10455;48.732;10.266;2023-02-20T23:34:49;3.50;;;2.83;;
20593;SDS011;10455;48.732;10.266;2023-02-20T23:40:08;4.97;;;2.27;;
20593;SDS011;10455;48.732;10.266;2023-02-20T23:45:29;9.47;;;2.90;;
20593;SDS011;10455;48.732;10.266;2023-02-20T23:50:49;5.27;;;2.80;;
20593;SDS011;10455;48.732;10.266;2023-02-20T23:56:08;4.40;;;3.00;;
